createdAt,value
2022-12-23T00:01:19.146Z,10.32
2022-12-23T00:03:45.550Z,10.25
2022-12-23T00:06:16.305Z,10.31
2022-12-23T00:08:43.041Z,10.28
2022-12-23T00:11:16.164Z,10.61
2022-12-23T00:13:42.846Z,10.28
2022-12-23T00:16:12.496Z,10.66
2022-12-23T00:18:39.950Z,10.45
2022-12-23T00:21:12.949Z,10.49
2022-12-23T00:23:42.380Z,10.28
2022-12-23T00:26:18.493Z,10.39
2022-12-23T00:28:45.082Z,10.15
2022-12-23T00:31:12.269Z,10.19
2022-12-23T00:33:41.448Z,10.14
2022-12-23T00:36:24.851Z,10.42
2022-12-23T00:38:51.641Z,10.49
2022-12-23T00:41:18.906Z,10.29
2022-12-23T00:43:45.221Z,10.09
2022-12-23T00:46:11.702Z,9.85
2022-12-23T00:48:38.085Z,9.92
2022-12-23T00:51:04.597Z,9.87
2022-12-23T00:53:30.967Z,10.03
2022-12-23T00:55:57.285Z,9.89
2022-12-23T00:58:23.881Z,9.72
2022-12-23T01:00:50.236Z,9.57
2022-12-23T01:03:16.876Z,9.48
2022-12-23T01:05:43.369Z,9.44
2022-12-23T01:08:12.155Z,9.40
2022-12-23T01:10:40.530Z,9.31
2022-12-23T01:13:07.151Z,9.24
2022-12-23T01:15:33.787Z,9.44
2022-12-23T01:18:00.475Z,9.20
2022-12-23T01:20:26.857Z,9.14
2022-12-23T01:22:53.247Z,9.10
2022-12-23T01:25:19.547Z,9.06
2022-12-23T01:27:45.953Z,9.27
2022-12-23T01:30:12.414Z,9.15
2022-12-23T01:32:38.845Z,9.13
2022-12-23T01:35:05.584Z,9.04
2022-12-23T01:37:32.078Z,8.96
2022-12-23T01:39:58.626Z,8.95
2022-12-23T01:42:24.998Z,8.85
2022-12-23T01:44:59.105Z,8.89
2022-12-23T01:47:45.705Z,8.78
2022-12-23T01:50:37.879Z,8.72
2022-12-23T01:53:30.880Z,8.66
2022-12-23T01:55:59.477Z,8.64
2022-12-23T01:58:36.647Z,8.65
2022-12-23T02:01:03.207Z,8.64
2022-12-23T02:03:31.479Z,8.63
2022-12-23T02:05:58.815Z,8.66
2022-12-23T02:08:25.282Z,8.82
2022-12-23T02:11:19.135Z,8.84
2022-12-23T02:14:36.726Z,8.87
2022-12-23T02:17:25.485Z,9.43
2022-12-23T02:20:16.350Z,9.52
2022-12-23T02:23:31.930Z,9.45
2022-12-23T02:26:29.269Z,9.67
2022-12-23T02:29:11.602Z,9.70
2022-12-23T02:32:03.420Z,9.62
2022-12-23T02:34:49.897Z,9.61
2022-12-23T02:37:24.211Z,10.06
2022-12-23T02:39:56.072Z,9.92
2022-12-23T02:42:27.741Z,9.74
2022-12-23T02:45:08.167Z,9.77
2022-12-23T02:47:39.573Z,9.91
2022-12-23T02:50:14.292Z,9.73
2022-12-23T02:52:44.643Z,9.75
2022-12-23T02:55:19.693Z,9.73
2022-12-23T02:57:49.742Z,9.83
2022-12-23T03:00:16.981Z,9.77
2022-12-23T03:02:44.187Z,9.83
2022-12-23T03:05:32.644Z,9.80
2022-12-23T03:08:02.998Z,10.07
2022-12-23T03:10:45.667Z,10.07
2022-12-23T03:13:26.630Z,10.11
2022-12-23T03:16:22.964Z,10.38
2022-12-23T03:19:15.995Z,10.39
2022-12-23T03:22:00.086Z,10.35
2022-12-23T03:24:40.307Z,10.58
2022-12-23T03:27:16.022Z,10.48
2022-12-23T03:29:53.883Z,10.59
2022-12-23T03:32:23.242Z,10.39
2022-12-23T03:34:54.067Z,10.48
2022-12-23T03:37:23.681Z,10.29
2022-12-23T03:39:56.365Z,10.23
2022-12-23T03:42:26.902Z,10.18
2022-12-23T03:45:28.002Z,10.32
2022-12-23T03:47:49.134Z,10.62
2022-12-23T03:50:19.384Z,10.39
2022-12-23T03:52:56.106Z,10.25
2022-12-23T03:55:35.103Z,10.32
2022-12-23T03:58:24.066Z,10.24
2022-12-23T04:01:04.250Z,10.21
2022-12-23T04:03:42.921Z,10.13
2022-12-23T04:06:14.368Z,10.11
2022-12-23T04:08:42.036Z,10.29
2022-12-23T04:11:08.754Z,10.60
2022-12-23T04:13:35.306Z,10.38
2022-12-23T04:16:02.359Z,10.43
2022-12-23T04:18:29.303Z,10.40
2022-12-23T04:20:55.647Z,10.31
2022-12-23T04:23:22.171Z,10.28
2022-12-23T04:25:48.578Z,10.20
2022-12-23T04:28:15.065Z,10.24
2022-12-23T04:30:41.490Z,10.34
2022-12-23T04:33:10.892Z,10.13
2022-12-23T04:35:37.299Z,10.22
2022-12-23T04:38:04.089Z,10.55
2022-12-23T04:40:30.475Z,10.22
2022-12-23T04:42:57.160Z,10.08
2022-12-23T04:45:23.559Z,10.19
2022-12-23T04:47:49.889Z,10.28
2022-12-23T04:50:17.473Z,10.19
2022-12-23T04:52:44.139Z,10.33
2022-12-23T04:55:10.932Z,10.59
2022-12-23T04:57:37.387Z,10.73
2022-12-23T05:00:05.207Z,10.65
2022-12-23T05:02:31.760Z,11.02
2022-12-23T05:04:58.362Z,10.75
2022-12-23T05:07:25.337Z,10.77
2022-12-23T05:09:51.721Z,10.79
2022-12-23T05:12:18.271Z,11.12
2022-12-23T05:14:44.578Z,10.84
2022-12-23T05:17:10.883Z,10.71
2022-12-23T05:19:37.306Z,10.29
2022-12-23T05:22:03.692Z,10.38
2022-12-23T05:24:30.255Z,10.25
2022-12-23T05:27:00.199Z,10.60
2022-12-23T05:29:27.340Z,10.33
2022-12-23T05:31:53.854Z,10.56
2022-12-23T05:34:20.701Z,10.81
2022-12-23T05:36:47.070Z,10.53
2022-12-23T05:39:13.595Z,10.44
2022-12-23T05:41:39.914Z,10.46
2022-12-23T05:44:06.377Z,10.47
2022-12-23T05:46:32.785Z,10.57
2022-12-23T05:48:59.377Z,10.69
2022-12-23T05:51:26.185Z,10.67
2022-12-23T05:53:52.623Z,10.58
2022-12-23T05:56:18.967Z,10.24
2022-12-23T05:58:45.308Z,10.18
2022-12-23T06:01:11.811Z,10.17
2022-12-23T06:03:38.391Z,10.12
2022-12-23T06:06:05.292Z,10.03
2022-12-23T06:08:32.222Z,9.92
2022-12-23T06:10:58.764Z,9.99
2022-12-23T06:13:25.544Z,9.87
2022-12-23T06:15:51.852Z,9.82
2022-12-23T06:18:18.268Z,9.79
2022-12-23T06:20:48.017Z,9.90
2022-12-23T06:23:14.618Z,9.85
2022-12-23T06:25:40.985Z,10.31
2022-12-23T06:28:07.416Z,10.24
2022-12-23T06:30:34.322Z,10.08
2022-12-23T06:33:00.815Z,10.05
2022-12-23T06:35:27.163Z,10.01
2022-12-23T06:37:53.595Z,10.11
2022-12-23T06:40:19.916Z,9.98
2022-12-23T06:42:46.677Z,10.09
2022-12-23T06:45:13.031Z,10.46
2022-12-23T06:47:39.413Z,10.73
2022-12-23T06:50:06.301Z,10.43
2022-12-23T06:52:32.729Z,10.47
2022-12-23T06:54:59.027Z,10.36
2022-12-23T06:57:25.456Z,10.22
2022-12-23T06:59:51.774Z,10.15
2022-12-23T07:02:18.303Z,10.02
2022-12-23T07:04:44.912Z,9.96
2022-12-23T07:07:11.245Z,9.94
2022-12-23T07:09:37.591Z,10.10
2022-12-23T07:12:04.108Z,10.17
2022-12-23T07:14:30.850Z,10.04
2022-12-23T07:16:57.497Z,9.97
2022-12-23T07:19:23.901Z,9.92
2022-12-23T07:21:50.259Z,9.91
2022-12-23T07:24:16.650Z,10.12
2022-12-23T07:26:43.323Z,10.27
2022-12-23T07:29:09.725Z,10.26
2022-12-23T07:31:40.604Z,10.23
2022-12-23T07:34:07.476Z,10.22
2022-12-23T07:36:34.280Z,10.79
2022-12-23T07:39:00.714Z,10.51
2022-12-23T07:41:27.035Z,10.52
2022-12-23T07:43:53.487Z,10.27
2022-12-23T07:46:19.930Z,10.10
2022-12-23T07:48:46.532Z,10.12
2022-12-23T07:51:12.935Z,10.18
2022-12-23T07:53:39.408Z,10.30
2022-12-23T07:56:06.122Z,10.23
2022-12-23T07:58:32.575Z,10.03
2022-12-23T08:01:06.104Z,10.05
2022-12-23T08:03:32.916Z,10.01
2022-12-23T08:06:04.870Z,9.89
2022-12-23T08:08:32.226Z,9.86
2022-12-23T08:11:01.134Z,10.08
2022-12-23T08:13:28.118Z,9.97
2022-12-23T08:15:59.277Z,10.12
2022-12-23T08:18:27.074Z,9.99
2022-12-23T08:21:06.179Z,10.20
2022-12-23T08:23:33.252Z,10.07
2022-12-23T08:26:11.753Z,10.19
2022-12-23T08:28:39.835Z,10.32
2022-12-23T08:31:07.070Z,10.39
2022-12-23T08:33:34.705Z,10.38
2022-12-23T08:36:01.095Z,10.18
2022-12-23T08:38:27.905Z,10.41
2022-12-23T08:40:54.484Z,10.25
2022-12-23T08:43:20.851Z,10.51
2022-12-23T08:45:47.587Z,10.55
2022-12-23T08:48:14.480Z,10.62
2022-12-23T08:50:42.280Z,10.52
2022-12-23T08:53:09.251Z,10.97
2022-12-23T08:55:43.955Z,10.80
2022-12-23T08:58:12.125Z,10.75
2022-12-23T09:00:38.796Z,10.63
2022-12-23T09:03:05.826Z,10.65
2022-12-23T09:05:33.315Z,10.61
2022-12-23T09:08:00.298Z,10.91
2022-12-23T09:10:26.624Z,11.04
2022-12-23T09:12:53.174Z,11.45
2022-12-23T09:15:19.492Z,11.19
2022-12-23T09:17:46.040Z,10.85
2022-12-23T09:20:12.544Z,10.67
2022-12-23T09:22:38.919Z,10.62
2022-12-23T09:25:05.676Z,10.63
2022-12-23T09:27:32.242Z,11.40
2022-12-23T09:29:58.704Z,11.02
2022-12-23T09:32:25.018Z,10.90
2022-12-23T09:34:51.360Z,11.04
2022-12-23T09:37:17.776Z,10.95
2022-12-23T09:39:44.476Z,11.05
2022-12-23T09:42:55.295Z,11.43
2022-12-23T09:45:40.965Z,11.64
2022-12-23T09:48:13.771Z,11.72
2022-12-23T09:50:42.402Z,11.52
2022-12-23T09:53:15.359Z,11.20
2022-12-23T09:56:06.252Z,11.36
2022-12-23T09:58:48.774Z,11.56
2022-12-23T10:01:44.763Z,11.69
2022-12-23T10:04:17.706Z,11.67
2022-12-23T10:06:47.362Z,11.42
2022-12-23T10:09:17.390Z,11.34
2022-12-23T10:11:47.514Z,11.14
2022-12-23T10:14:24.010Z,11.30
2022-12-23T10:16:55.304Z,11.39
2022-12-23T10:19:43.551Z,11.26
2022-12-23T10:22:26.660Z,11.40
2022-12-23T10:24:55.661Z,11.57
2022-12-23T10:27:41.088Z,11.41
2022-12-23T10:30:49.507Z,11.46
2022-12-23T10:33:20.061Z,11.62
2022-12-23T10:36:09.355Z,11.31
2022-12-23T10:38:46.994Z,11.56
2022-12-23T10:41:28.771Z,11.50
2022-12-23T10:44:14.829Z,11.49
2022-12-23T10:47:04.557Z,11.69
2022-12-23T10:50:09.276Z,11.52
2022-12-23T10:52:39.780Z,11.43
2022-12-23T10:55:06.973Z,11.52
2022-12-23T10:57:33.496Z,11.44
2022-12-23T10:59:59.946Z,11.68
2022-12-23T11:02:47.457Z,11.70
2022-12-23T11:05:21.443Z,11.83
2022-12-23T11:07:47.956Z,11.74
2022-12-23T11:10:22.003Z,12.09
2022-12-23T11:12:51.546Z,11.64
2022-12-23T11:15:31.798Z,11.26
2022-12-23T11:18:00.795Z,11.19
2022-12-23T11:20:28.453Z,11.63
2022-12-23T11:23:00.283Z,11.48
2022-12-23T11:25:33.144Z,11.28
2022-12-23T11:28:08.132Z,11.26
2022-12-23T11:30:57.005Z,11.07
2022-12-23T11:33:30.035Z,11.21
2022-12-23T11:36:22.626Z,11.07
2022-12-23T11:38:58.365Z,11.09
2022-12-23T11:41:55.743Z,11.13
2022-12-23T11:44:43.265Z,11.17
2022-12-23T11:47:25.561Z,11.09
2022-12-23T11:49:55.102Z,11.08
2022-12-23T11:52:24.330Z,10.99
2022-12-23T11:54:56.346Z,11.07
2022-12-23T11:57:41.417Z,11.20
2022-12-23T12:00:18.692Z,11.37
2022-12-23T12:02:47.491Z,11.34
2022-12-23T12:05:25.258Z,11.37
2022-12-23T12:07:52.215Z,11.14
2022-12-23T12:10:24.913Z,11.03
2022-12-23T12:12:56.038Z,10.95
2022-12-23T12:15:50.926Z,11.13
2022-12-23T12:18:19.798Z,11.49
2022-12-23T12:20:51.013Z,11.79
2022-12-23T12:23:34.232Z,11.54
2022-12-23T12:26:07.871Z,11.47
2022-12-23T12:28:40.319Z,11.53
2022-12-23T12:31:35.520Z,11.49
2022-12-23T12:34:05.023Z,11.76
2022-12-23T12:36:56.437Z,11.57
2022-12-23T12:39:30.838Z,11.40
2022-12-23T12:42:05.874Z,11.45
2022-12-23T12:44:43.464Z,11.28
2022-12-23T12:47:44.624Z,11.15
2022-12-23T12:50:18.224Z,11.21
2022-12-23T12:52:44.705Z,11.30
2022-12-23T12:55:14.686Z,11.43
2022-12-23T12:57:41.316Z,11.33
2022-12-23T13:00:15.521Z,11.40
2022-12-23T13:03:03.487Z,11.25
2022-12-23T13:05:32.593Z,11.16
2022-12-23T13:08:01.968Z,11.51
2022-12-23T13:10:44.712Z,11.48
2022-12-23T13:13:40.995Z,11.19
2022-12-23T13:16:16.930Z,11.13
2022-12-23T13:18:55.605Z,11.11
2022-12-23T13:21:41.095Z,11.15
2022-12-23T13:24:35.483Z,11.03
2022-12-23T13:27:14.135Z,11.38
2022-12-23T13:30:19.927Z,11.11
2022-12-23T13:33:07.626Z,11.19
2022-12-23T13:35:48.637Z,11.21
2022-12-23T13:38:48.045Z,10.92
2022-12-23T13:41:27.411Z,10.77
2022-12-23T13:43:57.802Z,10.65
2022-12-23T13:46:30.062Z,10.60
2022-12-23T13:49:07.009Z,10.74
2022-12-23T13:51:43.399Z,10.62
2022-12-23T13:54:21.894Z,10.56
2022-12-23T13:57:19.823Z,10.54
2022-12-23T14:00:04.662Z,10.49
2022-12-23T14:02:37.479Z,10.51
2022-12-23T14:05:26.581Z,10.51
2022-12-23T14:07:53.036Z,10.45
2022-12-23T14:10:23.343Z,10.45
2022-12-23T14:12:51.807Z,10.53
2022-12-23T14:15:42.635Z,10.42
2022-12-23T14:18:31.730Z,10.33
2022-12-23T14:21:41.886Z,10.29
2022-12-23T14:24:23.267Z,10.43
2022-12-23T14:27:01.952Z,10.42
2022-12-23T14:29:43.261Z,10.48
2022-12-23T14:32:28.393Z,10.51
2022-12-23T14:35:17.791Z,10.51
2022-12-23T14:38:04.904Z,10.43
2022-12-23T14:40:37.347Z,10.40
2022-12-23T14:43:22.107Z,10.40
2022-12-23T14:45:51.457Z,10.39
2022-12-23T14:48:36.911Z,10.33
2022-12-23T14:51:22.680Z,10.33
2022-12-23T14:53:51.737Z,10.40
2022-12-23T14:56:18.062Z,10.42
2022-12-23T14:59:35.952Z,10.27
2022-12-23T15:02:40.047Z,10.32
2022-12-23T15:05:07.798Z,10.23
2022-12-23T15:07:37.582Z,10.20
2022-12-23T15:10:15.679Z,10.46
2022-12-23T15:12:52.465Z,10.68
2022-12-23T15:15:23.156Z,10.52
2022-12-23T15:18:00.716Z,10.20
2022-12-23T15:20:27.054Z,10.41
2022-12-23T15:23:00.481Z,10.29
2022-12-23T15:25:33.005Z,10.18
2022-12-23T15:28:02.733Z,10.11
2022-12-23T15:30:34.818Z,10.07
2022-12-23T15:33:27.982Z,10.01
2022-12-23T15:35:54.039Z,10.11
2022-12-23T15:38:22.298Z,9.99
2022-12-23T15:41:03.271Z,9.94
2022-12-23T15:43:30.217Z,9.82
2022-12-23T15:46:08.139Z,9.78
2022-12-23T15:48:34.632Z,9.75
2022-12-23T15:51:11.481Z,9.65
2022-12-23T15:53:40.364Z,9.60
2022-12-23T15:56:10.490Z,9.58
2022-12-23T15:58:40.042Z,9.55
2022-12-23T16:01:08.236Z,9.58
2022-12-23T16:03:39.078Z,9.57
2022-12-23T16:06:17.424Z,9.65
2022-12-23T16:08:45.305Z,9.55
2022-12-23T16:11:13.292Z,9.50
2022-12-23T16:13:46.687Z,9.46
2022-12-23T16:16:37.151Z,9.43
2022-12-23T16:19:04.175Z,9.40
2022-12-23T16:21:34.497Z,9.34
2022-12-23T16:24:03.120Z,9.30
2022-12-23T16:26:29.537Z,9.48
2022-12-23T16:29:00.222Z,9.52
2022-12-23T16:31:26.781Z,9.38
2022-12-23T16:34:00.322Z,9.49
2022-12-23T16:36:26.828Z,9.47
2022-12-23T16:39:00.724Z,9.43
2022-12-23T16:41:27.497Z,9.41
2022-12-23T16:43:53.832Z,9.36
2022-12-23T16:46:22.311Z,9.35
2022-12-23T16:48:51.314Z,9.33
2022-12-23T16:51:20.076Z,9.31
2022-12-23T16:53:48.283Z,9.32
2022-12-23T16:56:16.373Z,9.34
2022-12-23T16:58:43.559Z,9.34
2022-12-23T17:01:32.209Z,9.36
2022-12-23T17:03:59.009Z,9.35
2022-12-23T17:06:26.060Z,9.36
2022-12-23T17:08:53.321Z,9.50
2022-12-23T17:11:25.323Z,9.48
2022-12-23T17:13:55.293Z,9.49
2022-12-23T17:16:28.205Z,9.49
2022-12-23T17:18:54.894Z,9.50
2022-12-23T17:21:30.140Z,9.47
2022-12-23T17:24:05.246Z,9.43
2022-12-23T17:26:31.665Z,9.37
2022-12-23T17:28:58.233Z,9.40
2022-12-23T17:31:27.279Z,9.43
2022-12-23T17:33:54.561Z,9.67
2022-12-23T17:36:21.575Z,9.70
2022-12-23T17:38:48.182Z,9.61
2022-12-23T17:41:32.053Z,9.54
2022-12-23T17:43:59.140Z,9.55
2022-12-23T17:46:26.511Z,9.61
2022-12-23T17:48:53.569Z,9.65
2022-12-23T17:51:22.061Z,9.76
2022-12-23T17:53:56.915Z,9.77
2022-12-23T17:56:23.955Z,9.63
2022-12-23T17:58:51.187Z,9.72
2022-12-23T18:01:19.449Z,9.75
2022-12-23T18:03:45.990Z,9.79
2022-12-23T18:06:17.781Z,9.84
2022-12-23T18:08:44.906Z,10.15
2022-12-23T18:11:39.042Z,10.24
2022-12-23T18:14:05.437Z,10.41
2022-12-23T18:16:31.908Z,10.45
2022-12-23T18:18:58.247Z,10.43
2022-12-23T18:21:27.058Z,10.42
2022-12-23T18:23:55.129Z,10.63
2022-12-23T18:26:21.555Z,10.80
2022-12-23T18:28:47.958Z,10.75
2022-12-23T18:31:17.296Z,10.98
2022-12-23T18:33:44.323Z,10.64
2022-12-23T18:36:21.772Z,10.50
2022-12-23T18:38:48.252Z,10.42
2022-12-23T18:41:14.613Z,10.73
2022-12-23T18:43:40.948Z,10.81
2022-12-23T18:46:07.499Z,10.68
2022-12-23T18:48:33.826Z,10.52
2022-12-23T18:51:00.534Z,10.69
2022-12-23T18:53:27.117Z,10.94
2022-12-23T18:55:54.220Z,10.84
2022-12-23T18:58:21.494Z,10.67
2022-12-23T19:00:50.282Z,10.88
2022-12-23T19:03:21.610Z,10.76
2022-12-23T19:05:48.971Z,10.85
2022-12-23T19:08:21.871Z,10.73
2022-12-23T19:10:52.728Z,10.68
2022-12-23T19:13:19.253Z,10.93
2022-12-23T19:15:46.193Z,11.25
2022-12-23T19:18:21.617Z,11.18
2022-12-23T19:20:48.836Z,11.14
2022-12-23T19:23:16.088Z,10.95
2022-12-23T19:25:50.743Z,10.90
2022-12-23T19:28:20.701Z,10.96
2022-12-23T19:30:47.122Z,11.10
2022-12-23T19:33:13.445Z,11.04
2022-12-23T19:35:44.161Z,10.99
2022-12-23T19:38:11.389Z,11.01
2022-12-23T19:40:38.126Z,11.01
2022-12-23T19:43:04.834Z,11.02
2022-12-23T19:45:31.268Z,11.16
2022-12-23T19:47:57.685Z,11.71
2022-12-23T19:50:24.097Z,11.54
2022-12-23T19:52:50.452Z,11.52
2022-12-23T19:55:16.904Z,11.86
2022-12-23T19:57:43.795Z,11.65
2022-12-23T20:00:10.614Z,11.92
2022-12-23T20:02:36.991Z,12.06
2022-12-23T20:05:04.067Z,12.47
2022-12-23T20:07:30.397Z,12.50
2022-12-23T20:09:56.778Z,12.18
2022-12-23T20:12:23.272Z,12.08
2022-12-23T20:14:49.571Z,11.92
2022-12-23T20:17:16.005Z,12.20
2022-12-23T20:19:46.027Z,12.35
2022-12-23T20:22:12.880Z,12.21
2022-12-23T20:24:39.278Z,12.13
2022-12-23T20:27:11.028Z,12.51
2022-12-23T20:29:38.459Z,12.33
2022-12-23T20:32:05.156Z,12.31
2022-12-23T20:34:36.665Z,12.17
2022-12-23T20:37:05.844Z,12.18
2022-12-23T20:39:32.200Z,11.99
2022-12-23T20:41:58.509Z,11.64
2022-12-23T20:44:34.643Z,11.57
2022-12-23T20:47:02.767Z,11.42
2022-12-23T20:49:29.273Z,11.55
2022-12-23T20:51:55.669Z,11.70
2022-12-23T20:54:26.336Z,11.92
2022-12-23T20:56:56.548Z,11.60
2022-12-23T20:59:22.927Z,11.53
2022-12-23T21:01:49.281Z,11.81
2022-12-23T21:04:16.571Z,11.69
2022-12-23T21:06:44.165Z,11.89
2022-12-23T21:09:13.170Z,11.79
2022-12-23T21:11:42.679Z,12.15
2022-12-23T21:14:10.221Z,11.88
2022-12-23T21:16:37.721Z,12.14
2022-12-23T21:19:08.915Z,12.40
2022-12-23T21:21:35.985Z,12.07
2022-12-23T21:24:03.500Z,11.88
2022-12-23T21:26:31.062Z,11.77
2022-12-23T21:28:59.276Z,12.04
2022-12-23T21:31:27.076Z,12.23
2022-12-23T21:33:53.916Z,12.36
2022-12-23T21:36:23.253Z,12.31
2022-12-23T21:38:50.351Z,12.28
2022-12-23T21:41:22.523Z,12.11
2022-12-23T21:43:50.137Z,12.22
2022-12-23T21:46:19.643Z,12.33
2022-12-23T21:48:46.468Z,12.37
2022-12-23T21:51:19.585Z,12.52
2022-12-23T21:53:48.499Z,12.54
2022-12-23T21:56:17.975Z,12.29
2022-12-23T21:58:45.274Z,12.13
2022-12-23T22:01:14.610Z,12.43
2022-12-23T22:03:43.105Z,12.23
2022-12-23T22:06:15.382Z,12.22
2022-12-23T22:08:42.930Z,12.19
2022-12-23T22:11:12.642Z,12.41
2022-12-23T22:13:39.752Z,12.24
2022-12-23T22:16:10.347Z,12.09
2022-12-23T22:18:37.891Z,12.09
2022-12-23T22:21:09.008Z,12.08
2022-12-23T22:23:36.769Z,12.05
2022-12-23T22:26:04.050Z,12.03
2022-12-23T22:28:32.037Z,12.13
2022-12-23T22:31:03.884Z,12.25
2022-12-23T22:33:31.871Z,12.02
2022-12-23T22:35:58.476Z,11.73
2022-12-23T22:38:25.213Z,12.14
2022-12-23T22:40:52.916Z,11.79
2022-12-23T22:43:20.053Z,11.98
2022-12-23T22:45:46.554Z,11.68
2022-12-23T22:48:13.510Z,11.73
2022-12-23T22:50:40.173Z,11.82
2022-12-23T22:53:06.603Z,11.86
2022-12-23T22:55:32.950Z,11.60
2022-12-23T22:57:59.364Z,11.65
2022-12-23T23:00:25.725Z,11.77
2022-12-23T23:02:52.062Z,12.11
2022-12-23T23:05:18.652Z,12.18
2022-12-23T23:07:44.996Z,12.09
2022-12-23T23:10:12.045Z,12.21
2022-12-23T23:12:38.748Z,12.08
2022-12-23T23:15:05.736Z,12.38
2022-12-23T23:17:32.337Z,12.11
2022-12-23T23:19:58.819Z,11.93
2022-12-23T23:22:25.264Z,12.07
2022-12-23T23:24:52.268Z,11.93
2022-12-23T23:27:19.213Z,12.07
2022-12-23T23:29:45.601Z,12.41
2022-12-23T23:32:12.261Z,12.30
2022-12-23T23:34:38.751Z,11.85
2022-12-23T23:37:05.096Z,12.14
2022-12-23T23:39:31.759Z,12.18
2022-12-23T23:41:58.603Z,11.99
2022-12-23T23:44:25.213Z,12.18
2022-12-23T23:46:51.528Z,12.22
2022-12-23T23:49:18.079Z,12.34
2022-12-23T23:51:44.468Z,12.38
2022-12-23T23:54:10.893Z,12.16
2022-12-23T23:56:39.056Z,12.06
2022-12-23T23:59:06.336Z,12.10
